Time;durP1;ratioP1;P1;durP2;ratioP2;P2;SDS_P1;SDS_P2;PMS_P1;PMS_P2;Temp;Humidity;BMP_temperature;BMP_pressure;BME280_temperature;BME280_humidity;BME280_pressure;Samples;Min_cycle;Max_cycle;Signal;HPM_P1;HPM_P2
2023/05/05 00:01:05;;;;;;;7.75;3.67;;;12.10;99.90;;;;;;5032794;28;20528;-70
2023/05/05 00:03:32;;;;;;;8.05;3.50;;;12.20;99.90;;;;;;5053942;28;20041;-71
2023/05/05 00:05:58;;;;;;;9.02;3.60;;;12.10;99.90;;;;;;5036848;28;20473;-70
2023/05/05 00:08:24;;;;;;;8.70;3.90;;;12.10;99.90;;;;;;5054852;28;20072;-70
2023/05/05 00:10:51;;;;;;;12.63;3.70;;;12.10;99.90;;;;;;5054598;28;20048;-70
2023/05/05 00:13:18;;;;;;;9.07;4.22;;;12.10;99.90;;;;;;5053665;28;20507;-70
2023/05/05 00:15:45;;;;;;;8.98;3.65;;;12.10;99.90;;;;;;5054732;28;20040;-70
2023/05/05 00:18:12;;;;;;;11.55;3.70;;;12.10;99.90;;;;;;5054738;28;20044;-70
2023/05/05 00:20:37;;;;;;;9.48;3.67;;;12.10;99.90;;;;;;5053646;28;20504;-70
2023/05/05 00:23:03;;;;;;;9.02;3.90;;;12.10;99.90;;;;;;5039873;28;20037;-70
2023/05/05 00:25:29;;;;;;;8.95;3.90;;;12.10;99.90;;;;;;5050542;28;20046;-71
2023/05/05 00:27:55;;;;;;;8.18;4.13;;;12.10;99.90;;;;;;5034282;28;20048;-71
2023/05/05 00:30:21;;;;;;;7.90;3.65;;;12.00;99.90;;;;;;5019280;28;20098;-71
2023/05/05 00:32:48;;;;;;;8.77;3.60;;;12.10;99.90;;;;;;5070684;28;20037;-71
2023/05/05 00:35:14;;;;;;;11.48;4.15;;;12.10;99.90;;;;;;5070877;28;20045;-71
2023/05/05 00:37:40;;;;;;;9.65;3.45;;;12.10;99.90;;;;;;5034282;28;20037;-71
2023/05/05 00:40:06;;;;;;;8.45;4.05;;;12.10;99.90;;;;;;5051235;28;20029;-71
2023/05/05 00:42:46;;;;;;;9.98;4.00;;;12.10;99.90;;;;;;5050616;28;20620;-71
2023/05/05 00:45:14;;;;;;;10.60;3.80;;;12.10;99.90;;;;;;5050191;28;20521;-70
2023/05/05 00:47:42;;;;;;;9.27;3.97;;;12.10;99.90;;;;;;5050596;28;20048;-71
2023/05/05 00:50:08;;;;;;;8.63;3.80;;;12.00;99.90;;;;;;5050137;28;20038;-70
2023/05/05 00:52:38;;;;;;;7.47;3.80;;;12.10;99.90;;;;;;5036219;28;20044;-71
2023/05/05 00:55:04;;;;;;;9.07;3.90;;;12.10;99.90;;;;;;5053693;28;20050;-70
2023/05/05 00:57:31;;;;;;;7.50;3.78;;;12.10;99.90;;;;;;5052134;28;20045;-71
2023/05/05 00:59:58;;;;;;;6.78;3.72;;;12.10;99.90;;;;;;5044562;28;20029;-70
2023/05/05 01:02:24;;;;;;;10.85;3.75;;;12.10;99.90;;;;;;5031874;28;20037;-71
2023/05/05 01:04:49;;;;;;;10.35;3.67;;;12.00;99.90;;;;;;5032904;28;20050;-71
2023/05/05 01:07:28;;;;;;;7.78;4.10;;;12.00;99.90;;;;;;5031467;28;20038;-71
2023/05/05 01:10:01;;;;;;;9.00;3.92;;;12.00;99.90;;;;;;5049779;28;20067;-70
2023/05/05 01:12:35;;;;;;;10.80;4.30;;;12.00;99.90;;;;;;5032711;28;20034;-71
2023/05/05 01:15:17;;;;;;;11.25;4.32;;;11.90;99.90;;;;;;5043771;28;20036;-70
2023/05/05 01:17:53;;;;;;;10.83;3.80;;;11.90;99.90;;;;;;5040757;28;20038;-71
2023/05/05 01:20:30;;;;;;;9.38;3.97;;;11.80;99.90;;;;;;5049982;28;20287;-70
2023/05/05 01:23:00;;;;;;;9.13;3.92;;;11.90;99.90;;;;;;5041574;28;20088;-71
2023/05/05 01:25:37;;;;;;;8.50;3.92;;;11.80;99.90;;;;;;5029459;28;20052;-71
2023/05/05 01:28:26;;;;;;;8.65;4.20;;;11.80;99.90;;;;;;5042276;28;20091;-71
2023/05/05 01:31:18;;;;;;;10.05;4.32;;;11.80;99.90;;;;;;5049609;28;20390;-70
2023/05/05 01:33:48;;;;;;;10.50;4.07;;;11.80;99.90;;;;;;5052303;28;20409;-71
2023/05/05 01:36:23;;;;;;;9.68;4.07;;;11.80;99.90;;;;;;5048538;28;20056;-70
2023/05/05 01:38:58;;;;;;;10.00;3.95;;;11.70;99.90;;;;;;5034730;28;20064;-70
2023/05/05 01:41:38;;;;;;;9.32;4.13;;;11.70;99.90;;;;;;5043931;28;20037;-71
2023/05/05 01:44:06;;;;;;;9.02;4.00;;;11.70;99.90;;;;;;5046453;28;20040;-70
2023/05/05 01:46:34;;;;;;;11.50;4.30;;;11.70;99.90;;;;;;5024305;28;20069;-71
2023/05/05 01:49:00;;;;;;;7.20;3.75;;;11.70;99.90;;;;;;5064731;28;20048;-71
2023/05/05 01:51:26;;;;;;;11.32;4.53;;;11.70;99.90;;;;;;5041187;28;20052;-71
2023/05/05 01:53:56;;;;;;;8.80;3.90;;;11.70;99.90;;;;;;5032216;28;20037;-71
2023/05/05 01:56:23;;;;;;;10.27;3.90;;;11.60;99.90;;;;;;5025590;28;20367;-70
2023/05/05 01:58:51;;;;;;;7.13;4.18;;;11.70;99.90;;;;;;5035131;28;20037;-71
2023/05/05 02:01:21;;;;;;;7.25;3.97;;;11.70;99.90;;;;;;5048719;28;20041;-71
2023/05/05 02:03:49;;;;;;;9.52;3.95;;;11.60;99.90;;;;;;5048937;28;20033;-71
2023/05/05 02:06:18;;;;;;;8.60;4.18;;;11.70;99.90;;;;;;5052055;28;20044;-70
2023/05/05 02:08:44;;;;;;;9.57;4.18;;;11.70;99.90;;;;;;5051363;28;20112;-71
2023/05/05 02:11:11;;;;;;;9.40;3.97;;;11.60;99.90;;;;;;5045948;28;20044;-71
2023/05/05 02:13:41;;;;;;;8.55;4.10;;;11.60;99.90;;;;;;5038618;28;20092;-71
2023/05/05 02:16:07;;;;;;;9.82;4.50;;;11.50;99.90;;;;;;5046683;28;20033;-70
2023/05/05 02:18:35;;;;;;;8.10;3.83;;;11.60;99.90;;;;;;5035528;28;20032;-71
2023/05/05 02:21:01;;;;;;;8.55;4.30;;;11.50;99.90;;;;;;5049329;28;20135;-71
2023/05/05 02:23:27;;;;;;;8.70;4.57;;;11.60;99.90;;;;;;5050912;28;20135;-70
2023/05/05 02:25:59;;;;;;;9.25;4.30;;;11.50;99.90;;;;;;5050564;28;20513;-70
2023/05/05 02:28:38;;;;;;;8.20;3.90;;;11.60;99.90;;;;;;5038745;28;20107;-71
2023/05/05 02:31:05;;;;;;;10.38;5.07;;;11.60;99.90;;;;;;5029916;28;20560;-71
2023/05/05 02:33:34;;;;;;;10.38;4.47;;;11.50;99.90;;;;;;5049764;28;20033;-71
2023/05/05 02:36:09;;;;;;;8.80;4.47;;;11.60;99.90;;;;;;5050753;28;20494;-70
2023/05/05 02:38:39;;;;;;;11.68;4.80;;;11.50;99.90;;;;;;5051045;28;20040;-71
2023/05/05 02:41:08;;;;;;;10.20;4.45;;;11.50;99.90;;;;;;5046652;28;20049;-71
2023/05/05 02:43:35;;;;;;;10.02;4.32;;;11.50;99.90;;;;;;5031691;28;20041;-71
2023/05/05 02:46:01;;;;;;;10.23;4.57;;;11.50;99.90;;;;;;5058516;28;20080;-71
2023/05/05 02:48:28;;;;;;;8.32;4.65;;;11.50;99.90;;;;;;5049973;28;20072;-71
2023/05/05 02:50:54;;;;;;;7.47;3.90;;;11.40;99.90;;;;;;5030502;28;20041;-70
2023/05/05 02:53:24;;;;;;;8.80;4.20;;;11.50;99.90;;;;;;5032390;28;20118;-70
2023/05/05 02:56:12;;;;;;;8.98;4.57;;;11.40;99.90;;;;;;5032565;28;20082;-71
2023/05/05 02:59:16;;;;;;;10.05;4.53;;;11.40;99.90;;;;;;5033133;28;20056;-71
2023/05/05 03:01:55;;;;;;;9.20;4.82;;;11.40;99.90;;;;;;5039629;28;20076;-71
2023/05/05 03:04:50;;;;;;;8.90;4.28;;;11.40;99.90;;;;;;5031332;28;20551;-70
2023/05/05 03:07:25;;;;;;;8.25;4.18;;;11.40;99.90;;;;;;5034909;28;20059;-70
2023/05/05 03:10:05;;;;;;;8.65;4.90;;;11.40;99.90;;;;;;5046750;28;20044;-71
2023/05/05 03:12:46;;;;;;;11.80;4.40;;;11.40;99.90;;;;;;5038812;28;20037;-71
2023/05/05 03:15:13;;;;;;;9.38;4.22;;;11.40;99.90;;;;;;5033932;28;20540;-70
2023/05/05 03:17:40;;;;;;;8.15;4.00;;;11.40;99.90;;;;;;5048584;28;20037;-70
2023/05/05 03:20:08;;;;;;;9.50;4.43;;;11.50;99.90;;;;;;5050138;28;20037;-70
2023/05/05 03:22:37;;;;;;;10.82;4.60;;;11.60;99.90;;;;;;5029686;28;20033;-71
2023/05/05 03:25:03;;;;;;;13.38;5.03;;;11.60;99.90;;;;;;5031049;28;20041;-71
2023/05/05 03:27:29;;;;;;;9.15;4.63;;;11.50;99.90;;;;;;5039784;28;20044;-70
2023/05/05 03:29:55;;;;;;;9.52;4.45;;;11.50;99.90;;;;;;5033907;28;20485;-70
2023/05/05 03:32:22;;;;;;;8.43;4.00;;;11.40;99.90;;;;;;5046313;28;20041;-70
2023/05/05 03:34:48;;;;;;;10.32;5.13;;;11.40;99.90;;;;;;5050323;28;20426;-70
2023/05/05 03:37:14;;;;;;;10.57;5.13;;;11.40;99.90;;;;;;5049856;28;20025;-70
2023/05/05 03:39:39;;;;;;;9.35;4.65;;;11.30;99.90;;;;;;5048966;28;20055;-70
2023/05/05 03:42:05;;;;;;;8.23;4.50;;;11.30;99.90;;;;;;5020831;28;20546;-70
2023/05/05 03:44:30;;;;;;;8.82;4.40;;;11.30;99.90;;;;;;5033130;28;20528;-70
2023/05/05 03:46:56;;;;;;;10.10;4.47;;;11.30;99.90;;;;;;5044712;28;20052;-70
2023/05/05 03:49:22;;;;;;;9.48;4.30;;;11.30;99.90;;;;;;5048915;28;20040;-71
2023/05/05 03:51:47;;;;;;;10.63;4.53;;;11.30;99.90;;;;;;5033948;28;20052;-71
2023/05/05 03:54:13;;;;;;;8.02;4.35;;;11.40;99.90;;;;;;5041271;28;20044;-71
2023/05/05 03:56:38;;;;;;;7.75;4.40;;;11.40;99.90;;;;;;5049181;28;20509;-71
2023/05/05 03:59:04;;;;;;;8.98;4.25;;;11.40;99.90;;;;;;5049549;28;20061;-71
2023/05/05 04:01:30;;;;;;;8.80;4.60;;;11.40;99.90;;;;;;5047209;28;20393;-71
2023/05/05 04:03:56;;;;;;;9.55;4.85;;;11.40;99.90;;;;;;5046054;28;20067;-71
2023/05/05 04:06:22;;;;;;;7.95;4.25;;;11.30;99.90;;;;;;5043053;28;20041;-70
2023/05/05 04:08:47;;;;;;;8.55;5.05;;;11.20;99.90;;;;;;5070132;28;20551;-71
2023/05/05 04:11:13;;;;;;;7.70;4.22;;;11.20;99.90;;;;;;5051055;28;20041;-72
2023/05/05 04:13:38;;;;;;;9.93;4.93;;;11.20;99.90;;;;;;5032422;28;20040;-72
2023/05/05 04:16:04;;;;;;;9.30;4.60;;;11.20;99.90;;;;;;5049789;28;20067;-71
2023/05/05 04:18:30;;;;;;;8.82;4.95;;;11.10;99.90;;;;;;5065886;28;20033;-72
2023/05/05 04:20:55;;;;;;;9.30;4.85;;;11.10;99.90;;;;;;5049041;28;20472;-72
2023/05/05 04:23:21;;;;;;;10.48;5.88;;;11.00;99.90;;;;;;5068808;28;20037;-72
2023/05/05 04:25:47;;;;;;;10.07;5.85;;;11.00;99.90;;;;;;5053205;28;20402;-72
2023/05/05 04:28:12;;;;;;;12.60;6.05;;;10.90;99.90;;;;;;5053086;28;20515;-72
2023/05/05 04:30:38;;;;;;;13.57;6.10;;;10.90;99.90;;;;;;5051616;28;20040;-73
2023/05/05 04:33:03;;;;;;;10.98;6.47;;;10.90;99.90;;;;;;5053143;28;20418;-72
2023/05/05 04:35:29;;;;;;;14.40;6.30;;;10.90;99.90;;;;;;5051655;28;20075;-70
2023/05/05 04:37:55;;;;;;;12.77;6.72;;;10.90;99.90;;;;;;5053275;28;20493;-70
2023/05/05 04:40:20;;;;;;;11.38;5.75;;;10.90;99.90;;;;;;5052312;28;20482;-70
2023/05/05 04:42:46;;;;;;;12.15;6.13;;;10.80;99.90;;;;;;5053332;28;20041;-70
2023/05/05 04:45:12;;;;;;;12.43;6.38;;;10.90;99.90;;;;;;5051766;28;20041;-70
2023/05/05 04:47:38;;;;;;;11.77;6.68;;;10.90;99.90;;;;;;5038154;28;20041;-70
2023/05/05 04:50:04;;;;;;;14.68;6.53;;;10.80;99.90;;;;;;5051505;28;20059;-70
2023/05/05 04:52:30;;;;;;;11.00;6.07;;;10.60;99.90;;;;;;5046674;28;20048;-69
2023/05/05 04:54:56;;;;;;;12.48;6.13;;;10.60;99.90;;;;;;5056234;28;20041;-70
2023/05/05 04:57:21;;;;;;;9.63;5.78;;;10.80;99.90;;;;;;5051328;28;20095;-70
2023/05/05 04:59:47;;;;;;;10.18;5.70;;;10.90;99.90;;;;;;5049794;28;20126;-69
2023/05/05 05:02:13;;;;;;;10.32;6.35;;;10.80;99.90;;;;;;5049259;28;20040;-69
2023/05/05 05:04:38;;;;;;;10.73;6.63;;;10.70;99.90;;;;;;5019117;28;20048;-70
2023/05/05 05:07:04;;;;;;;11.75;6.68;;;10.50;99.90;;;;;;5048954;28;20044;-69
2023/05/05 05:09:29;;;;;;;12.80;5.75;;;10.40;99.90;;;;;;5046484;28;20147;-69
2023/05/05 05:11:59;;;;;;;14.70;6.45;;;10.60;99.90;;;;;;5042958;28;20046;-69
2023/05/05 05:14:26;;;;;;;12.00;6.45;;;10.60;99.90;;;;;;5022197;28;20040;-69
2023/05/05 05:16:52;;;;;;;12.13;7.38;;;10.40;99.90;;;;;;5065876;28;20116;-69
2023/05/05 05:19:18;;;;;;;11.25;6.88;;;10.30;99.90;;;;;;5048989;28;20143;-68
2023/05/05 05:21:43;;;;;;;13.23;6.93;;;10.30;99.90;;;;;;5044178;28;20513;-68
2023/05/05 05:24:10;;;;;;;11.48;6.90;;;10.30;99.90;;;;;;5040752;28;20041;-68
2023/05/05 05:26:36;;;;;;;12.10;6.13;;;10.30;99.90;;;;;;5064596;28;20052;-68
2023/05/05 05:29:02;;;;;;;12.75;6.70;;;10.30;99.90;;;;;;5034365;28;20139;-68
2023/05/05 05:31:28;;;;;;;10.25;5.90;;;10.50;99.90;;;;;;5053551;28;20041;-68
2023/05/05 05:33:55;;;;;;;11.35;6.85;;;10.60;99.90;;;;;;5067614;28;20047;-68
2023/05/05 05:36:20;;;;;;;10.50;6.35;;;10.60;99.90;;;;;;5034143;28;20570;-68
2023/05/05 05:38:46;;;;;;;10.40;6.53;;;10.60;99.90;;;;;;5036735;28;20033;-68
2023/05/05 05:41:11;;;;;;;9.90;6.13;;;10.60;99.90;;;;;;5040243;28;20025;-68
2023/05/05 05:43:37;;;;;;;12.57;7.10;;;10.60;99.90;;;;;;5037333;28;20049;-69
2023/05/05 05:46:02;;;;;;;11.75;6.82;;;10.60;99.90;;;;;;5050056;28;20071;-68
2023/05/05 05:48:28;;;;;;;10.25;6.95;;;10.60;99.90;;;;;;5048016;28;20393;-68
2023/05/05 05:50:55;;;;;;;12.07;7.38;;;10.60;99.90;;;;;;5047965;28;20045;-68
2023/05/05 05:53:20;;;;;;;11.40;7.38;;;10.50;99.90;;;;;;5023213;28;20102;-68
2023/05/05 05:55:46;;;;;;;12.80;6.95;;;10.50;99.90;;;;;;5046397;28;20033;-68
2023/05/05 05:58:12;;;;;;;10.90;6.95;;;10.50;99.90;;;;;;5036412;28;20045;-68
2023/05/05 06:00:37;;;;;;;13.57;7.57;;;10.60;99.90;;;;;;5033679;28;20552;-68
2023/05/05 06:03:03;;;;;;;13.05;6.75;;;10.50;99.90;;;;;;5050730;28;20044;-83
2023/05/05 06:05:28;;;;;;;12.35;6.75;;;10.60;99.90;;;;;;5049410;28;20068;-79
2023/05/05 06:07:54;;;;;;;12.00;7.07;;;10.70;99.90;;;;;;5034326;28;20104;-80
2023/05/05 06:10:19;;;;;;;11.93;6.63;;;10.70;99.90;;;;;;5046509;28;20469;-81
2023/05/05 06:12:45;;;;;;;10.18;6.85;;;10.80;99.90;;;;;;5049722;28;20378;-68
2023/05/05 06:15:11;;;;;;;13.05;6.90;;;10.80;99.90;;;;;;5037118;28;20045;-69
2023/05/05 06:17:36;;;;;;;11.60;7.57;;;10.90;99.90;;;;;;5035236;28;20044;-68
2023/05/05 06:20:02;;;;;;;10.45;7.25;;;11.00;99.90;;;;;;5031533;28;20041;-69
2023/05/05 06:22:27;;;;;;;9.77;6.15;;;11.00;99.90;;;;;;5032096;28;20540;-69
2023/05/05 06:24:53;;;;;;;12.02;7.07;;;11.00;99.90;;;;;;5039785;28;20039;-69
2023/05/05 06:27:19;;;;;;;13.50;7.57;;;11.10;99.90;;;;;;5048769;28;20045;-68
2023/05/05 06:29:45;;;;;;;11.63;7.53;;;11.20;99.90;;;;;;5033402;28;20041;-69
2023/05/05 06:32:11;;;;;;;11.80;8.18;;;11.40;99.90;;;;;;5031425;28;20044;-69
2023/05/05 06:34:37;;;;;;;10.70;7.85;;;11.50;99.90;;;;;;5031995;28;20509;-69
2023/05/05 06:37:03;;;;;;;13.27;8.27;;;11.60;99.90;;;;;;5048994;28;20076;-69
2023/05/05 06:39:28;;;;;;;12.45;8.45;;;11.80;99.90;;;;;;5051098;28;20029;-69
2023/05/05 06:41:54;;;;;;;14.80;8.70;;;11.80;99.90;;;;;;5038911;28;20197;-69
2023/05/05 06:44:19;;;;;;;12.43;8.23;;;11.80;99.90;;;;;;5039952;28;20038;-69
2023/05/05 06:46:45;;;;;;;11.10;7.25;;;11.70;99.90;;;;;;5049167;28;20175;-70
2023/05/05 06:49:11;;;;;;;14.23;8.40;;;11.80;99.90;;;;;;5046568;28;20170;-69
2023/05/05 06:51:37;;;;;;;10.38;7.47;;;11.90;99.90;;;;;;5050064;28;20505;-69
2023/05/05 06:54:03;;;;;;;12.30;7.88;;;11.90;99.90;;;;;;5049823;28;20083;-70
2023/05/05 06:56:29;;;;;;;11.40;7.38;;;11.90;99.90;;;;;;5056390;28;20507;-70
2023/05/05 06:58:55;;;;;;;12.02;8.25;;;12.00;99.90;;;;;;5050237;28;20501;-69
2023/05/05 07:01:21;;;;;;;13.07;8.50;;;12.10;99.90;;;;;;5032141;28;20075;-70
2023/05/05 07:03:46;;;;;;;12.90;8.30;;;12.00;99.90;;;;;;5047109;28;20037;-70
2023/05/05 07:06:12;;;;;;;11.10;7.78;;;12.10;99.90;;;;;;5039908;28;20115;-70
2023/05/05 07:08:37;;;;;;;13.05;8.23;;;12.20;99.90;;;;;;5029662;28;20045;-69
2023/05/05 07:11:03;;;;;;;14.80;8.50;;;12.10;99.90;;;;;;5028501;28;20090;-69
2023/05/05 07:13:28;;;;;;;13.50;8.57;;;12.20;99.90;;;;;;5032290;28;20106;-71
2023/05/05 07:15:54;;;;;;;14.50;9.00;;;12.20;99.90;;;;;;5050775;28;20397;-70
2023/05/05 07:18:20;;;;;;;12.70;9.23;;;12.30;99.90;;;;;;5048826;28;20071;-70
2023/05/05 07:20:45;;;;;;;14.23;9.30;;;12.40;99.90;;;;;;5050750;28;20041;-70
2023/05/05 07:23:11;;;;;;;14.25;8.80;;;12.50;99.90;;;;;;5039981;28;20540;-69
2023/05/05 07:25:37;;;;;;;14.10;8.75;;;12.60;99.90;;;;;;5037210;28;20048;-69
2023/05/05 07:28:03;;;;;;;13.18;9.80;;;12.70;99.90;;;;;;5014336;28;20046;-70
2023/05/05 07:30:29;;;;;;;13.10;8.88;;;12.80;99.90;;;;;;5034340;28;20075;-81
2023/05/05 07:32:55;;;;;;;11.80;8.82;;;12.80;99.90;;;;;;5032262;28;20670;-70
2023/05/05 07:35:21;;;;;;;13.18;8.38;;;12.90;99.90;;;;;;5050963;28;20037;-70
2023/05/05 07:37:47;;;;;;;14.88;9.30;;;13.10;99.90;;;;;;5038303;28;20511;-70
2023/05/05 07:40:13;;;;;;;14.13;9.50;;;13.10;99.90;;;;;;5047144;28;20033;-78
2023/05/05 07:42:38;;;;;;;15.15;8.43;;;13.20;99.90;;;;;;5063893;28;20203;-82
2023/05/05 07:45:05;;;;;;;12.40;8.60;;;13.40;99.90;;;;;;5048070;28;20094;-80
2023/05/05 07:47:31;;;;;;;14.05;8.63;;;13.60;99.90;;;;;;5051080;28;20042;-81
2023/05/05 07:49:56;;;;;;;13.48;9.68;;;13.60;99.90;;;;;;5036047;28;20056;-81
2023/05/05 07:52:22;;;;;;;12.00;8.43;;;13.70;99.90;;;;;;5044796;28;20057;-70
2023/05/05 07:54:48;;;;;;;14.55;8.85;;;13.80;99.90;;;;;;5045127;28;20087;-71
2023/05/05 07:57:14;;;;;;;12.25;9.38;;;13.90;99.90;;;;;;5040498;28;20072;-70
2023/05/05 07:59:42;;;;;;;15.95;9.60;;;14.10;99.90;;;;;;5034034;28;20045;-70
2023/05/05 08:02:12;;;;;;;14.02;9.68;;;14.10;99.90;;;;;;5037024;28;20060;-71
2023/05/05 08:04:42;;;;;;;13.77;9.32;;;14.20;99.90;;;;;;5061445;28;20127;-71
2023/05/05 08:07:08;;;;;;;12.63;8.88;;;14.30;99.90;;;;;;5049022;28;20103;-70
2023/05/05 08:09:34;;;;;;;11.43;9.27;;;14.30;99.90;;;;;;5041433;28;20033;-70
2023/05/05 08:12:01;;;;;;;14.63;10.57;;;14.40;99.90;;;;;;5057089;28;20042;-70
2023/05/05 08:14:28;;;;;;;15.13;9.85;;;14.40;99.90;;;;;;5030169;28;20136;-70
2023/05/05 08:16:54;;;;;;;13.38;9.18;;;14.50;99.90;;;;;;5034331;28;20038;-70
2023/05/05 08:19:19;;;;;;;15.25;9.68;;;14.60;99.90;;;;;;5029008;28;20033;-70
2023/05/05 08:21:45;;;;;;;13.52;10.18;;;14.70;99.90;;;;;;5038050;28;20090;-70
2023/05/05 08:24:11;;;;;;;13.95;9.65;;;14.80;99.90;;;;;;5041640;28;20500;-70
2023/05/05 08:26:36;;;;;;;12.80;9.23;;;14.80;99.90;;;;;;5027240;28;20036;-71
2023/05/05 08:29:02;;;;;;;16.83;9.45;;;14.80;99.90;;;;;;5039365;28;20477;-71
2023/05/05 08:31:31;;;;;;;15.00;10.27;;;15.00;99.90;;;;;;5048637;28;20041;-70
2023/05/05 08:33:57;;;;;;;15.73;10.68;;;15.00;99.90;;;;;;5034489;28;20121;-70
2023/05/05 08:36:22;;;;;;;15.85;10.95;;;15.20;99.90;;;;;;5034531;28;20116;-70
2023/05/05 08:38:48;;;;;;;16.83;10.23;;;15.20;99.90;;;;;;5053598;28;20040;-70
2023/05/05 08:41:16;;;;;;;15.70;11.70;;;15.30;99.90;;;;;;5044286;28;20061;-70
2023/05/05 08:43:44;;;;;;;15.43;10.25;;;15.40;99.90;;;;;;5054358;28;20044;-70
2023/05/05 08:46:11;;;;;;;14.55;10.25;;;15.50;99.90;;;;;;5027787;28;20048;-70
2023/05/05 08:48:40;;;;;;;14.65;10.13;;;15.60;99.90;;;;;;5032555;28;20037;-75
2023/05/05 08:51:07;;;;;;;19.73;10.82;;;15.70;99.90;;;;;;5049542;28;20052;-74
2023/05/05 08:53:53;;;;;;;14.88;10.75;;;15.70;99.90;;;;;;5052170;28;20417;-73
2023/05/05 08:56:23;;;;;;;13.93;10.90;;;15.80;99.90;;;;;;5038631;28;20037;-73
2023/05/05 08:58:50;;;;;;;14.88;11.35;;;16.00;99.90;;;;;;5042619;28;20041;-72
2023/05/05 09:01:16;;;;;;;15.68;11.65;;;16.00;99.90;;;;;;5051247;28;20040;-73
2023/05/05 09:03:43;;;;;;;15.02;11.13;;;16.00;99.90;;;;;;5045403;28;20037;-75
2023/05/05 09:06:09;;;;;;;16.08;11.80;;;16.20;99.90;;;;;;5050231;28;20501;-78
2023/05/05 09:08:37;;;;;;;15.23;12.00;;;16.30;99.90;;;;;;5050004;28;20033;-74
2023/05/05 09:11:03;;;;;;;18.10;13.23;;;16.40;99.90;;;;;;5052123;28;20041;-74
2023/05/05 09:13:31;;;;;;;16.90;12.63;;;16.60;99.90;;;;;;5035623;28;20037;-74
2023/05/05 09:15:58;;;;;;;15.23;13.02;;;16.60;99.90;;;;;;5054164;28;20049;-74
2023/05/05 09:18:24;;;;;;;15.25;11.68;;;16.70;99.90;;;;;;5035599;28;20111;-74
2023/05/05 09:20:50;;;;;;;16.88;13.20;;;16.80;99.90;;;;;;5050359;28;20032;-74
2023/05/05 09:23:17;;;;;;;16.23;12.93;;;16.90;99.90;;;;;;5016228;28;20083;-74
2023/05/05 09:26:01;;;;;;;15.20;12.30;;;16.90;99.90;;;;;;5033451;28;20037;-74
2023/05/05 09:28:26;;;;;;;17.13;12.32;;;16.90;99.90;;;;;;5053020;28;20052;-74
2023/05/05 09:30:52;;;;;;;14.75;12.13;;;17.10;99.90;;;;;;5063169;28;20036;-74
2023/05/05 09:33:29;;;;;;;14.30;11.93;;;17.20;99.90;;;;;;5051358;28;20076;-74
2023/05/05 09:35:55;;;;;;;17.67;10.93;;;17.30;99.90;;;;;;5051266;28;20112;-74
2023/05/05 09:38:22;;;;;;;17.08;12.75;;;17.40;99.90;;;;;;5039842;28;20120;-74
2023/05/05 09:40:50;;;;;;;15.73;12.48;;;17.50;99.90;;;;;;5051153;28;20056;-74
2023/05/05 09:43:16;;;;;;;15.02;11.23;;;17.50;99.90;;;;;;5030192;28;20047;-74
2023/05/05 09:45:42;;;;;;;15.25;11.73;;;17.50;99.90;;;;;;5051126;28;20045;-74
2023/05/05 09:48:23;;;;;;;17.17;13.02;;;17.60;99.90;;;;;;5016755;28;20555;-74
2023/05/05 09:50:48;;;;;;;17.05;13.48;;;17.60;99.90;;;;;;5031827;28;20516;-74
2023/05/05 09:53:14;;;;;;;20.98;14.18;;;17.60;99.90;;;;;;5068886;28;20128;-74
2023/05/05 09:55:40;;;;;;;17.88;12.35;;;17.70;99.90;;;;;;5040207;28;20029;-75
2023/05/05 09:58:19;;;;;;;18.30;13.70;;;17.70;99.90;;;;;;5045798;28;20490;-74
2023/05/05 10:00:45;;;;;;;19.92;15.10;;;17.70;99.90;;;;;;5052368;28;20048;-74
2023/05/05 10:03:11;;;;;;;17.58;14.40;;;17.60;99.90;;;;;;5034494;28;20047;-75
2023/05/05 10:05:50;;;;;;;23.65;16.45;;;17.50;99.90;;;;;;5047500;28;20037;-71
2023/05/05 10:08:18;;;;;;;19.00;14.38;;;17.60;99.90;;;;;;5023832;28;20037;-71
2023/05/05 10:10:54;;;;;;;17.65;14.25;;;17.70;99.90;;;;;;5051226;28;20043;-71
2023/05/05 10:13:22;;;;;;;22.55;14.85;;;17.90;99.90;;;;;;5048012;28;20077;-71
2023/05/05 10:15:55;;;;;;;18.25;15.57;;;17.80;99.90;;;;;;5051216;28;20029;-71
2023/05/05 10:18:23;;;;;;;19.60;15.52;;;17.90;99.90;;;;;;5035324;28;20029;-71
2023/05/05 10:20:57;;;;;;;21.10;17.58;;;18.00;99.90;;;;;;5044716;28;20493;-71
2023/05/05 10:23:27;;;;;;;24.88;16.88;;;17.90;99.90;;;;;;5040310;28;20084;-71
2023/05/05 10:26:05;;;;;;;22.45;17.50;;;18.10;99.90;;;;;;5049184;28;20048;-71
2023/05/05 10:28:33;;;;;;;23.55;18.33;;;18.30;99.90;;;;;;5050506;28;20090;-71
2023/05/05 10:31:01;;;;;;;22.55;16.77;;;18.40;99.90;;;;;;5039611;28;20037;-71
2023/05/05 10:33:38;;;;;;;21.85;17.60;;;18.60;99.90;;;;;;5048846;28;20039;-71
2023/05/05 10:36:06;;;;;;;22.55;16.42;;;18.60;99.90;;;;;;5034909;28;20045;-71
2023/05/05 10:38:35;;;;;;;24.38;16.08;;;18.70;99.90;;;;;;5029844;28;20033;-71
2023/05/05 10:41:00;;;;;;;19.33;13.50;;;18.80;99.90;;;;;;5025127;28;20033;-71
2023/05/05 10:43:28;;;;;;;20.58;15.35;;;18.90;99.90;;;;;;5037382;28;20052;-71
2023/05/05 10:45:54;;;;;;;19.67;15.85;;;18.80;99.90;;;;;;5032068;28;20528;-71
2023/05/05 10:48:38;;;;;;;19.35;15.80;;;18.60;99.90;;;;;;5038987;28;20072;-71
2023/05/05 10:51:14;;;;;;;23.38;16.38;;;18.60;99.90;;;;;;5046440;28;20056;-71
2023/05/05 10:53:50;;;;;;;18.02;13.65;;;18.70;99.90;;;;;;5031424;28;20060;-71
2023/05/05 10:56:25;;;;;;;18.17;14.45;;;18.90;99.90;;;;;;5034255;28;20398;-79
2023/05/05 10:58:51;;;;;;;18.33;15.20;;;19.10;99.90;;;;;;5038290;28;20488;-78
2023/05/05 11:01:46;;;;;;;20.10;14.80;;;19.20;99.90;;;;;;5051035;28;20087;-78
2023/05/05 11:04:22;;;;;;;19.23;15.50;;;19.20;99.90;;;;;;5027053;28;20045;-80
2023/05/05 11:07:06;;;;;;;17.95;15.80;;;19.30;99.90;;;;;;5033029;28;20056;-80
2023/05/05 11:09:35;;;;;;;20.08;15.98;;;19.20;99.90;;;;;;5034551;28;20596;-80
2023/05/05 11:12:04;;;;;;;18.83;14.88;;;19.20;99.90;;;;;;5051598;28;20107;-79
2023/05/05 11:14:29;;;;;;;18.10;13.57;;;19.00;99.90;;;;;;5035150;28;20493;-80
2023/05/05 11:16:55;;;;;;;17.52;13.90;;;19.00;99.90;;;;;;5034121;28;20035;-80
2023/05/05 11:19:43;;;;;;;20.67;13.80;;;18.90;99.90;;;;;;5054179;28;20040;-81
2023/05/05 11:22:09;;;;;;;17.08;13.57;;;18.80;99.90;;;;;;5047556;28;20114;-76
2023/05/05 11:24:35;;;;;;;17.35;14.15;;;18.70;99.90;;;;;;5053587;28;20516;-76
2023/05/05 11:27:01;;;;;;;15.52;13.00;;;18.80;99.90;;;;;;5035823;28;20041;-74
2023/05/05 11:29:46;;;;;;;16.95;14.13;;;18.80;99.90;;;;;;5034596;28;20095;-72
2023/05/05 11:32:14;;;;;;;16.85;12.75;;;18.90;99.90;;;;;;5018245;28;20494;-73
2023/05/05 11:34:49;;;;;;;18.38;14.15;;;18.90;99.90;;;;;;5036895;28;20044;-72
2023/05/05 11:37:16;;;;;;;19.40;13.95;;;18.90;99.90;;;;;;5037599;28;20044;-73
2023/05/05 11:39:54;;;;;;;18.10;14.15;;;18.80;99.90;;;;;;5053632;28;20444;-73
2023/05/05 11:42:24;;;;;;;19.52;14.32;;;18.80;99.90;;;;;;5053109;28;20123;-73
2023/05/05 11:44:51;;;;;;;18.63;14.25;;;18.70;99.90;;;;;;5045316;28;20034;-73
2023/05/05 11:47:16;;;;;;;18.95;13.55;;;18.60;99.90;;;;;;5018338;28;20092;-73
2023/05/05 11:49:42;;;;;;;16.92;12.18;;;18.60;99.90;;;;;;5035777;28;20040;-73
2023/05/05 11:52:11;;;;;;;15.48;12.00;;;18.60;99.90;;;;;;5043076;28;20444;-73
2023/05/05 11:54:49;;;;;;;16.02;11.75;;;18.50;99.90;;;;;;5031786;28;20405;-73
2023/05/05 11:57:16;;;;;;;16.70;10.95;;;18.50;99.90;;;;;;5037527;28;20037;-73
2023/05/05 12:00:00;;;;;;;16.60;11.48;;;18.60;99.90;;;;;;5050886;28;20508;-73
2023/05/05 12:02:28;;;;;;;15.82;12.25;;;18.60;99.90;;;;;;5018280;28;20371;-73
2023/05/05 12:04:54;;;;;;;15.73;11.80;;;18.60;99.90;;;;;;5033658;28;20059;-73
2023/05/05 12:07:22;;;;;;;15.27;10.63;;;18.70;99.90;;;;;;5051926;28;20041;-73
2023/05/05 12:09:48;;;;;;;15.23;11.07;;;18.70;99.90;;;;;;5052333;28;20161;-73
2023/05/05 12:12:15;;;;;;;15.32;11.38;;;18.70;99.90;;;;;;5042790;28;20041;-73
2023/05/05 12:14:51;;;;;;;13.88;9.75;;;18.70;99.90;;;;;;5052736;28;20037;-73
2023/05/05 12:17:18;;;;;;;15.48;11.88;;;18.80;99.90;;;;;;5052071;28;20132;-73
2023/05/05 12:19:52;;;;;;;15.38;11.15;;;18.70;99.90;;;;;;5051516;28;20037;-73
2023/05/05 12:22:23;;;;;;;13.27;8.52;;;18.90;99.90;;;;;;5037855;28;20053;-73
2023/05/05 12:24:57;;;;;;;11.68;7.10;;;18.90;99.90;;;;;;5054547;28;20458;-73
2023/05/05 12:27:25;;;;;;;10.43;6.38;;;18.90;99.90;;;;;;5053812;28;20555;-73
2023/05/05 12:29:51;;;;;;;11.32;6.22;;;19.00;99.90;;;;;;5034836;28;20045;-73
2023/05/05 12:32:20;;;;;;;10.60;6.20;;;19.00;99.90;;;;;;5060186;28;20041;-73
2023/05/05 12:34:47;;;;;;;9.95;5.20;;;19.00;99.90;;;;;;5052814;28;20474;-73
2023/05/05 12:37:15;;;;;;;11.13;7.25;;;19.00;99.90;;;;;;5053625;28;20029;-70
2023/05/05 12:39:40;;;;;;;13.43;7.45;;;19.00;99.90;;;;;;5053935;28;20436;-70
2023/05/05 12:42:06;;;;;;;11.63;7.00;;;18.90;99.90;;;;;;5047246;28;20036;-71